createdAt,value
2018-12-21T00:00:37.337Z,48.80
2018-12-21T00:03:05.236Z,47.77
2018-12-21T00:05:33.393Z,50.57
2018-12-21T00:08:01.412Z,53.07
2018-12-21T00:10:29.413Z,53.90
2018-12-21T00:12:57.871Z,49.23
2018-12-21T00:15:25.756Z,50.30
2018-12-21T00:17:53.777Z,47.57
2018-12-21T00:20:21.620Z,46.03
2018-12-21T00:22:50.174Z,47.97
2018-12-21T00:25:18.139Z,49.07
2018-12-21T00:27:46.053Z,46.30
2018-12-21T00:30:16.694Z,45.77
2018-12-21T00:32:50.380Z,49.67
2018-12-21T00:35:23.976Z,48.47
2018-12-21T00:37:57.667Z,50.00
2018-12-21T00:40:31.295Z,50.27
2018-12-21T00:43:11.883Z,53.00
2018-12-21T00:45:41.483Z,49.27
2018-12-21T00:48:10.412Z,52.07
2018-12-21T00:50:38.459Z,50.73
2018-12-21T00:53:06.327Z,47.40
2018-12-21T00:55:34.413Z,50.40
2018-12-21T00:58:02.483Z,54.03
2018-12-21T01:00:30.751Z,47.33
2018-12-21T01:02:58.627Z,50.90
2018-12-21T01:05:26.623Z,49.30
2018-12-21T01:07:54.784Z,51.37
2018-12-21T01:10:22.746Z,53.53
2018-12-21T01:12:50.804Z,50.90
2018-12-21T01:15:18.754Z,53.10
2018-12-21T01:17:46.802Z,49.50
2018-12-21T01:20:15.248Z,50.33
2018-12-21T01:22:43.328Z,49.03
2018-12-21T01:25:11.314Z,52.67
2018-12-21T01:27:39.641Z,44.80
2018-12-21T01:30:07.741Z,51.03
2018-12-21T01:32:35.876Z,48.17
2018-12-21T01:35:04.260Z,54.83
2018-12-21T01:37:32.295Z,50.03
2018-12-21T01:40:00.412Z,51.70
2018-12-21T01:42:28.692Z,52.47
2018-12-21T01:44:56.751Z,49.73
2018-12-21T01:47:24.739Z,45.10
2018-12-21T01:49:52.927Z,53.33
2018-12-21T01:52:20.987Z,47.63
2018-12-21T01:54:49.031Z,50.37
2018-12-21T01:57:17.478Z,51.07
2018-12-21T01:59:45.376Z,48.17
2018-12-21T02:02:13.733Z,53.27
2018-12-21T02:04:41.836Z,53.13
2018-12-21T02:07:09.999Z,50.97
2018-12-21T02:09:37.864Z,52.07
2018-12-21T02:12:06.162Z,58.47
2018-12-21T02:14:34.415Z,54.27
2018-12-21T02:17:02.309Z,54.60
2018-12-21T02:19:30.647Z,55.80
2018-12-21T02:21:58.593Z,58.20
2018-12-21T02:24:26.492Z,59.63
2018-12-21T02:26:54.586Z,52.53
2018-12-21T02:29:24.139Z,55.43
2018-12-21T02:31:52.243Z,50.60
2018-12-21T02:34:20.138Z,57.13
2018-12-21T02:36:48.371Z,51.20
2018-12-21T02:39:16.556Z,53.43
2018-12-21T02:41:44.532Z,52.20
2018-12-21T02:44:12.407Z,51.10
2018-12-21T02:46:40.562Z,51.20
2018-12-21T02:49:08.648Z,56.30
2018-12-21T02:51:37.730Z,50.60
2018-12-21T02:54:06.028Z,54.43
2018-12-21T02:56:33.869Z,51.60
2018-12-21T02:59:01.736Z,48.37
2018-12-21T03:01:29.668Z,47.00
2018-12-21T03:03:57.569Z,44.30
2018-12-21T03:06:25.786Z,44.33
2018-12-21T03:08:53.623Z,46.87
2018-12-21T03:11:21.668Z,45.77
2018-12-21T03:13:49.867Z,45.47
2018-12-21T03:16:17.996Z,39.97
2018-12-21T03:18:45.892Z,46.60
2018-12-21T03:21:13.963Z,43.20
2018-12-21T03:23:41.951Z,43.07
2018-12-21T03:26:10.187Z,43.50
2018-12-21T03:28:38.199Z,38.97
2018-12-21T03:31:06.178Z,41.40
2018-12-21T03:33:34.618Z,42.87
2018-12-21T03:36:02.731Z,41.93
2018-12-21T03:38:30.573Z,41.33
2018-12-21T03:41:01.066Z,43.67
2018-12-21T03:43:28.985Z,39.00
2018-12-21T03:45:56.989Z,39.50
2018-12-21T03:48:25.296Z,42.07
2018-12-21T03:50:53.395Z,41.57
2018-12-21T03:53:21.533Z,45.33
2018-12-21T03:55:50.031Z,42.57
2018-12-21T03:58:18.335Z,42.00
2018-12-21T04:00:46.365Z,41.67
2018-12-21T04:03:14.552Z,42.20
2018-12-21T04:05:42.923Z,43.30
2018-12-21T04:08:10.887Z,40.53
2018-12-21T04:10:38.976Z,35.97
2018-12-21T04:13:07.437Z,37.03
2018-12-21T04:15:35.302Z,37.10
2018-12-21T04:18:03.379Z,36.30
2018-12-21T04:20:31.257Z,38.47
2018-12-21T04:22:59.239Z,37.33
2018-12-21T04:25:27.428Z,37.30
2018-12-21T04:27:55.323Z,37.73
2018-12-21T04:30:23.315Z,37.43
2018-12-21T04:32:51.457Z,36.57
2018-12-21T04:35:19.495Z,35.13
2018-12-21T04:37:47.552Z,35.17
2018-12-21T04:40:15.833Z,36.60
2018-12-21T04:42:43.661Z,34.67
2018-12-21T04:45:11.512Z,34.20
2018-12-21T04:47:39.414Z,28.37
2018-12-21T04:50:07.882Z,27.60
2018-12-21T04:52:43.111Z,28.43
2018-12-21T04:55:07.927Z,26.37
2018-12-21T04:57:35.983Z,22.93
2018-12-21T05:00:05.374Z,22.03
2018-12-21T05:02:33.422Z,22.83
2018-12-21T05:05:01.628Z,23.67
2018-12-21T05:07:32.403Z,21.47
2018-12-21T05:10:01.063Z,21.57
2018-12-21T05:12:29.014Z,17.67
2018-12-21T05:14:57.019Z,20.97
2018-12-21T05:17:24.884Z,17.60
2018-12-21T05:19:52.804Z,22.73
2018-12-21T05:22:21.210Z,16.13
2018-12-21T05:24:49.676Z,16.57
2018-12-21T05:27:17.964Z,19.27
2018-12-21T05:29:46.243Z,18.07
2018-12-21T05:32:14.415Z,16.80
2018-12-21T05:34:42.676Z,18.37
2018-12-21T05:37:10.919Z,21.17
2018-12-21T05:39:38.807Z,20.17
2018-12-21T05:42:06.654Z,16.93
2018-12-21T05:44:35.040Z,18.20
2018-12-21T05:47:02.879Z,15.57
2018-12-21T05:49:30.745Z,17.70
2018-12-21T05:51:59.014Z,16.73
2018-12-21T05:54:27.567Z,15.50
2018-12-21T05:56:55.567Z,14.77
2018-12-21T05:59:23.844Z,14.63
2018-12-21T06:01:51.781Z,15.57
2018-12-21T06:04:19.847Z,20.57
2018-12-21T06:06:47.724Z,17.50
2018-12-21T06:09:15.987Z,15.47
2018-12-21T06:11:44.108Z,19.90
2018-12-21T06:14:12.169Z,16.33
2018-12-21T06:16:40.447Z,17.10
2018-12-21T06:19:08.527Z,16.57
2018-12-21T06:21:36.437Z,15.47
2018-12-21T06:24:04.956Z,21.63
2018-12-21T06:26:32.927Z,21.27
2018-12-21T06:29:01.967Z,16.93
2018-12-21T06:31:30.453Z,20.00
2018-12-21T06:33:58.598Z,18.13
2018-12-21T06:36:26.672Z,23.50
2018-12-21T06:38:54.631Z,19.03
2018-12-21T06:41:22.624Z,16.87
2018-12-21T06:43:50.740Z,21.83
2018-12-21T06:46:19.419Z,21.00
2018-12-21T06:48:47.491Z,16.83
2018-12-21T06:51:15.715Z,14.87
2018-12-21T06:53:44.042Z,16.73
2018-12-21T06:56:11.876Z,18.10
2018-12-21T06:58:39.830Z,20.03
2018-12-21T07:01:08.155Z,16.50
2018-12-21T07:03:36.297Z,16.37
2018-12-21T07:06:04.171Z,19.87
2018-12-21T07:08:33.578Z,15.83
2018-12-21T07:11:01.741Z,20.03
2018-12-21T07:13:29.812Z,15.43
2018-12-21T07:15:58.098Z,19.23
2018-12-21T07:18:26.187Z,14.97
2018-12-21T07:20:55.440Z,18.03
2018-12-21T07:23:27.324Z,17.10
2018-12-21T07:25:53.737Z,17.10
2018-12-21T07:28:21.747Z,17.27
2018-12-21T07:30:49.716Z,16.00
2018-12-21T07:33:17.668Z,17.07
2018-12-21T07:35:46.540Z,19.13
2018-12-21T07:38:15.217Z,21.40
2018-12-21T07:40:43.027Z,17.67
2018-12-21T07:43:10.960Z,16.00
2018-12-21T07:45:39.099Z,16.00
2018-12-21T07:48:07.271Z,12.20
2018-12-21T07:50:35.508Z,15.50
2018-12-21T07:53:04.721Z,12.67
2018-12-21T07:55:32.588Z,15.70
2018-12-21T07:58:00.606Z,13.50
2018-12-21T08:00:29.197Z,11.80
2018-12-21T08:02:57.470Z,12.70
2018-12-21T08:05:25.529Z,16.17
2018-12-21T08:07:53.502Z,18.17
2018-12-21T08:10:21.695Z,16.13
2018-12-21T08:12:49.798Z,22.97
2018-12-21T08:15:19.259Z,19.30
2018-12-21T08:17:47.316Z,13.43
2018-12-21T08:20:15.212Z,18.20
2018-12-21T08:22:43.252Z,15.63
2018-12-21T08:25:11.552Z,19.60
2018-12-21T08:27:39.387Z,16.63
2018-12-21T08:30:09.221Z,17.93
2018-12-21T08:32:38.511Z,18.60
2018-12-21T08:35:07.920Z,17.57
2018-12-21T08:37:38.760Z,18.53
2018-12-21T08:40:10.294Z,19.17
2018-12-21T08:42:41.424Z,17.50
2018-12-21T08:45:18.155Z,19.30
2018-12-21T08:47:51.798Z,23.47
2018-12-21T08:50:41.686Z,23.43
2018-12-21T08:53:09.678Z,15.50
2018-12-21T08:55:38.349Z,18.33
2018-12-21T08:58:08.658Z,20.10
2018-12-21T09:00:39.452Z,14.73
2018-12-21T09:03:09.065Z,14.20
2018-12-21T09:05:39.040Z,11.73
2018-12-21T09:08:07.848Z,17.10
2018-12-21T09:10:36.343Z,14.93
2018-12-21T09:13:20.352Z,13.93
2018-12-21T09:16:03.709Z,13.63
2018-12-21T09:18:32.214Z,11.40
2018-12-21T09:21:02.136Z,16.63
2018-12-21T09:23:30.852Z,12.03
2018-12-21T09:26:05.058Z,12.47
2018-12-21T09:28:33.660Z,12.23
2018-12-21T09:31:02.175Z,11.47
2018-12-21T09:33:32.887Z,12.00
2018-12-21T09:36:01.255Z,10.60
2018-12-21T09:38:42.968Z,15.00
2018-12-21T09:41:13.320Z,11.33
2018-12-21T09:43:42.666Z,12.90
2018-12-21T09:46:15.723Z,10.77
2018-12-21T09:48:45.843Z,11.70
2018-12-21T09:51:17.926Z,14.40
2018-12-21T09:53:47.383Z,11.50
2018-12-21T09:56:17.450Z,12.50
2018-12-21T09:58:48.887Z,12.87
2018-12-21T10:01:20.136Z,8.77
2018-12-21T10:03:49.884Z,10.27
2018-12-21T10:06:21.584Z,11.67
2018-12-21T10:08:52.903Z,11.03
2018-12-21T10:11:22.829Z,8.90
2018-12-21T10:14:06.421Z,13.50
2018-12-21T10:16:34.691Z,11.93
2018-12-21T10:19:03.913Z,12.17
2018-12-21T10:21:38.489Z,11.77
2018-12-21T10:24:18.486Z,12.13
2018-12-21T10:26:44.149Z,11.23
2018-12-21T10:29:14.544Z,16.63
2018-12-21T10:31:44.274Z,15.63
2018-12-21T10:34:13.275Z,12.70
2018-12-21T10:36:41.719Z,10.70
2018-12-21T10:39:10.533Z,15.37
2018-12-21T10:41:39.175Z,11.83
2018-12-21T10:44:07.164Z,13.70
2018-12-21T10:46:36.157Z,16.67
2018-12-21T10:49:04.630Z,12.50
2018-12-21T10:51:32.911Z,11.93
2018-12-21T10:54:01.685Z,13.27
2018-12-21T10:56:30.419Z,11.27
2018-12-21T10:58:58.646Z,12.00
2018-12-21T11:01:27.209Z,14.37
2018-12-21T11:03:56.774Z,12.43
2018-12-21T11:06:25.608Z,14.83
2018-12-21T11:08:54.219Z,13.93
2018-12-21T11:11:22.790Z,17.17
2018-12-21T11:13:51.283Z,15.20
2018-12-21T11:16:19.601Z,14.33
2018-12-21T11:18:49.679Z,12.27
2018-12-21T11:21:19.735Z,18.63
2018-12-21T11:23:48.789Z,13.90
2018-12-21T11:26:18.054Z,12.17
2018-12-21T11:28:48.257Z,17.33
2018-12-21T11:31:17.050Z,16.03
2018-12-21T11:33:45.960Z,15.67
2018-12-21T11:36:16.523Z,14.17
2018-12-21T11:38:45.958Z,14.83
2018-12-21T11:41:14.827Z,17.17
2018-12-21T11:43:43.405Z,14.33
2018-12-21T11:46:13.244Z,15.67
2018-12-21T11:48:42.510Z,14.50
2018-12-21T11:51:11.264Z,14.70
2018-12-21T11:53:42.345Z,14.73
2018-12-21T11:56:11.181Z,15.63
2018-12-21T11:58:39.528Z,18.00
2018-12-21T12:01:08.132Z,12.37
2018-12-21T12:03:36.563Z,12.43
2018-12-21T12:06:05.579Z,12.47
2018-12-21T12:08:34.522Z,13.80
2018-12-21T12:11:03.079Z,13.37
2018-12-21T12:13:31.274Z,11.50
2018-12-21T12:16:00.745Z,15.67
2018-12-21T12:18:29.094Z,13.43
2018-12-21T12:20:57.953Z,11.63
2018-12-21T12:23:27.947Z,7.87
2018-12-21T12:25:56.644Z,12.10
2018-12-21T12:28:24.715Z,11.97
2018-12-21T12:30:54.324Z,17.70
2018-12-21T12:33:22.990Z,11.93
2018-12-21T12:35:52.110Z,9.97
2018-12-21T12:38:20.422Z,10.23
2018-12-21T12:40:48.863Z,8.50
2018-12-21T12:43:17.249Z,11.47
2018-12-21T12:45:45.716Z,8.43
2018-12-21T12:48:14.819Z,12.17
2018-12-21T12:50:44.167Z,9.27
2018-12-21T12:53:12.805Z,8.83
2018-12-21T12:55:40.955Z,9.37
2018-12-21T12:58:09.350Z,9.00
2018-12-21T13:00:37.219Z,8.53
2018-12-21T13:03:05.495Z,11.33
2018-12-21T13:05:33.741Z,7.80
2018-12-21T13:08:01.743Z,6.67
2018-12-21T13:10:29.609Z,8.33
2018-12-21T13:12:57.474Z,9.13
2018-12-21T13:15:25.658Z,11.53
2018-12-21T13:17:53.775Z,10.47
2018-12-21T13:20:21.612Z,9.77
2018-12-21T13:22:49.427Z,10.43
2018-12-21T13:25:17.617Z,10.10
2018-12-21T13:27:45.688Z,11.67
2018-12-21T13:30:14.177Z,10.00
2018-12-21T13:32:42.038Z,9.00
2018-12-21T13:35:11.183Z,10.13
2018-12-21T13:37:39.767Z,10.47
2018-12-21T13:40:09.109Z,11.07
2018-12-21T13:42:37.256Z,8.90
2018-12-21T13:45:07.541Z,10.87
2018-12-21T13:47:35.386Z,14.70
2018-12-21T13:50:03.403Z,11.70
2018-12-21T13:52:31.575Z,10.50
2018-12-21T13:54:59.383Z,12.83
2018-12-21T13:57:27.365Z,11.00
2018-12-21T13:59:55.671Z,12.83
2018-12-21T14:02:23.500Z,10.53
2018-12-21T14:04:51.323Z,12.53
2018-12-21T14:07:19.607Z,13.27
2018-12-21T14:09:47.439Z,12.40
2018-12-21T14:12:15.293Z,11.63
2018-12-21T14:14:43.134Z,11.50
2018-12-21T14:17:11.204Z,11.77
2018-12-21T14:19:39.039Z,14.07
2018-12-21T14:22:07.170Z,12.57
2018-12-21T14:24:35.419Z,15.00
2018-12-21T14:27:03.479Z,12.63
2018-12-21T14:29:31.314Z,12.80
2018-12-21T14:31:59.553Z,12.10
2018-12-21T14:34:27.426Z,16.90
2018-12-21T14:36:55.320Z,11.53
2018-12-21T14:39:23.468Z,10.37
2018-12-21T14:41:51.624Z,11.67
2018-12-21T14:44:19.564Z,12.03
2018-12-21T14:46:47.949Z,14.23
2018-12-21T14:49:15.806Z,11.23
2018-12-21T14:51:44.494Z,19.03
2018-12-21T14:54:12.424Z,17.87
2018-12-21T14:56:40.525Z,13.10
2018-12-21T14:59:08.432Z,10.80
2018-12-21T15:01:37.307Z,10.40
2018-12-21T15:04:05.153Z,10.90
2018-12-21T15:06:33.775Z,11.00
2018-12-21T15:09:02.619Z,12.97
2018-12-21T15:11:30.519Z,11.50
2018-12-21T15:13:58.444Z,13.20
2018-12-21T15:16:26.598Z,12.00
2018-12-21T15:18:54.822Z,11.83
2018-12-21T15:21:22.631Z,12.13
2018-12-21T15:23:50.940Z,11.03
2018-12-21T15:26:19.160Z,11.73
2018-12-21T15:28:47.082Z,12.73
2018-12-21T15:31:15.499Z,11.83
2018-12-21T15:33:43.652Z,13.53
2018-12-21T15:36:11.602Z,13.00
2018-12-21T15:38:39.907Z,13.53
2018-12-21T15:41:07.728Z,12.63
2018-12-21T15:43:36.017Z,13.93
2018-12-21T15:46:04.393Z,13.03
2018-12-21T15:48:32.255Z,15.70
2018-12-21T15:51:00.124Z,15.17
2018-12-21T15:53:28.608Z,11.97
2018-12-21T15:55:58.434Z,17.33
2018-12-21T15:58:26.651Z,20.37
2018-12-21T16:00:54.970Z,12.13
2018-12-21T16:03:23.126Z,9.97
2018-12-21T16:05:51.114Z,12.17
2018-12-21T16:08:19.432Z,11.77
2018-12-21T16:10:48.472Z,10.50
2018-12-21T16:13:17.919Z,10.57
2018-12-21T16:15:47.932Z,9.90
2018-12-21T16:18:16.072Z,9.67
2018-12-21T16:20:44.419Z,12.77
2018-12-21T16:23:16.796Z,14.90
2018-12-21T16:25:45.031Z,14.77
2018-12-21T16:28:13.192Z,12.43
2018-12-21T16:30:42.272Z,11.43
2018-12-21T16:33:10.927Z,13.90
2018-12-21T16:35:39.172Z,12.43
2018-12-21T16:38:07.075Z,11.17
2018-12-21T16:40:36.181Z,12.57
2018-12-21T16:43:04.048Z,13.70
2018-12-21T16:45:32.525Z,14.73
2018-12-21T16:48:01.626Z,12.90
2018-12-21T16:50:29.646Z,12.53
2018-12-21T16:52:57.849Z,13.10
2018-12-21T16:55:26.053Z,14.37
2018-12-21T16:57:54.110Z,15.13
2018-12-21T17:00:22.414Z,17.57
2018-12-21T17:02:50.823Z,17.20
2018-12-21T17:05:18.740Z,21.10
2018-12-21T17:07:46.802Z,21.50
2018-12-21T17:10:15.691Z,21.67
2018-12-21T17:12:43.588Z,26.63
2018-12-21T17:15:11.430Z,25.17
2018-12-21T17:17:39.963Z,24.43
2018-12-21T17:20:08.604Z,25.10
2018-12-21T17:22:36.659Z,24.63
2018-12-21T17:25:06.805Z,23.87
2018-12-21T17:27:34.950Z,23.90
2018-12-21T17:30:03.031Z,25.80
2018-12-21T17:32:31.092Z,26.67
2018-12-21T17:34:59.480Z,27.13
2018-12-21T17:37:28.978Z,25.50
2018-12-21T17:39:57.556Z,24.43
2018-12-21T17:42:25.764Z,24.70
2018-12-21T17:44:53.621Z,24.83
2018-12-21T17:47:21.865Z,25.00
2018-12-21T17:49:50.307Z,28.33
2018-12-21T17:52:18.231Z,25.03
2018-12-21T17:54:46.136Z,25.60
2018-12-21T17:57:14.411Z,19.47
2018-12-21T17:59:42.224Z,19.23
2018-12-21T18:02:10.234Z,16.60
2018-12-21T18:04:38.433Z,13.57
2018-12-21T18:07:10.008Z,10.50
2018-12-21T18:09:38.301Z,9.47
2018-12-21T18:12:06.420Z,8.00
2018-12-21T18:14:34.582Z,8.37
2018-12-21T18:17:03.842Z,6.03
2018-12-21T18:19:32.770Z,7.87
2018-12-21T18:22:00.783Z,6.30
2018-12-21T18:24:28.936Z,12.10
2018-12-21T18:26:59.431Z,8.17
2018-12-21T18:29:27.387Z,12.27
2018-12-21T18:31:55.778Z,12.60
2018-12-21T18:34:28.165Z,9.57
2018-12-21T18:36:56.878Z,10.40
2018-12-21T18:39:24.978Z,10.67
2018-12-21T18:41:53.365Z,13.20
2018-12-21T18:44:21.508Z,11.23
2018-12-21T18:46:49.404Z,10.47
2018-12-21T18:49:17.914Z,15.03
2018-12-21T18:51:45.943Z,14.20
2018-12-21T18:54:14.530Z,13.20
2018-12-21T18:56:48.692Z,11.60
2018-12-21T18:59:24.379Z,12.53
2018-12-21T19:01:52.699Z,15.33
2018-12-21T19:04:20.818Z,19.93
2018-12-21T19:06:48.840Z,20.50
2018-12-21T19:09:18.754Z,22.60
2018-12-21T19:15:08.483Z,18.50
2018-12-21T19:17:36.386Z,16.20
2018-12-21T19:20:08.163Z,16.07
2018-12-21T19:22:37.060Z,19.13
2018-12-21T19:25:06.692Z,23.97
2018-12-21T19:27:35.095Z,21.97
2018-12-21T19:30:03.816Z,17.43
2018-12-21T19:32:32.182Z,21.00
2018-12-21T19:35:00.573Z,20.70
2018-12-21T19:37:29.554Z,16.20
2018-12-21T19:39:59.543Z,12.63
2018-12-21T19:42:28.495Z,16.53
2018-12-21T19:44:57.058Z,15.07
2018-12-21T19:47:25.409Z,15.17
2018-12-21T19:49:54.175Z,13.20
2018-12-21T19:52:22.906Z,14.60
2018-12-21T19:54:51.189Z,18.77
2018-12-21T19:57:19.033Z,12.97
2018-12-21T19:59:48.230Z,18.07
2018-12-21T20:02:16.691Z,16.90
2018-12-21T20:04:45.830Z,16.10
2018-12-21T20:07:14.412Z,12.23
2018-12-21T20:09:42.984Z,12.67
2018-12-21T20:12:11.042Z,11.73
2018-12-21T20:14:39.899Z,8.90
2018-12-21T20:17:08.210Z,11.20
2018-12-21T20:19:36.059Z,11.60
2018-12-21T20:22:03.938Z,8.93
2018-12-21T20:24:32.319Z,9.93
2018-12-21T20:27:00.355Z,4.80
2018-12-21T20:29:28.465Z,5.07
2018-12-21T20:31:56.943Z,5.67
2018-12-21T20:34:26.118Z,6.40
2018-12-21T20:36:55.176Z,5.83
2018-12-21T20:39:24.195Z,6.10
2018-12-21T20:41:52.817Z,5.97
2018-12-21T20:44:21.888Z,8.70
2018-12-21T20:46:50.204Z,9.10
2018-12-21T20:49:18.868Z,7.20
2018-12-21T20:51:47.761Z,6.67
2018-12-21T20:54:16.326Z,5.90
2018-12-21T20:56:44.974Z,6.83
2018-12-21T20:59:14.120Z,6.63
2018-12-21T21:01:43.561Z,7.20
2018-12-21T21:04:11.724Z,6.80
2018-12-21T21:06:40.623Z,7.83
2018-12-21T21:09:10.607Z,9.00
2018-12-21T21:11:39.267Z,10.17
2018-12-21T21:14:08.115Z,11.73
2018-12-21T21:16:36.683Z,13.73
2018-12-21T21:19:06.018Z,13.93
2018-12-21T21:21:36.629Z,15.20
2018-12-21T21:24:05.293Z,16.53
2018-12-21T21:26:33.901Z,18.00
2018-12-21T21:29:02.550Z,16.37
2018-12-21T21:31:33.459Z,19.20
2018-12-21T21:34:01.444Z,20.87
2018-12-21T21:36:29.482Z,16.73
2018-12-21T21:38:57.583Z,16.33
2018-12-21T21:41:26.534Z,17.37
2018-12-21T21:43:54.589Z,17.33
2018-12-21T21:46:23.991Z,17.33
2018-12-21T21:48:55.658Z,15.17
2018-12-21T21:51:24.079Z,16.43
2018-12-21T21:53:51.958Z,17.17
2018-12-21T21:56:20.604Z,17.33
2018-12-21T21:58:49.740Z,14.47
2018-12-21T22:01:18.592Z,14.93
2018-12-21T22:03:47.090Z,13.10
2018-12-21T22:06:15.154Z,11.53
2018-12-21T22:08:45.017Z,12.27
2018-12-21T22:11:13.824Z,15.37
2018-12-21T22:13:42.670Z,16.87
2018-12-21T22:16:11.904Z,16.50
2018-12-21T22:18:41.049Z,19.93
2018-12-21T22:21:09.519Z,22.27
2018-12-21T22:23:37.877Z,17.03
2018-12-21T22:26:06.137Z,14.53
2018-12-21T22:28:34.805Z,9.87
2018-12-21T22:31:02.805Z,10.97
2018-12-21T22:33:31.348Z,12.17
2018-12-21T22:36:00.867Z,11.33
2018-12-21T22:38:29.758Z,11.37
2018-12-21T22:40:58.597Z,7.93
2018-12-21T22:43:27.075Z,7.73
2018-12-21T22:45:56.084Z,6.27
2018-12-21T22:48:26.972Z,10.47
2018-12-21T22:50:55.913Z,6.27
2018-12-21T22:53:25.671Z,7.70
2018-12-21T22:55:54.240Z,8.07
2018-12-21T22:58:22.132Z,6.77
2018-12-21T23:00:50.621Z,8.27
2018-12-21T23:03:19.699Z,9.93
2018-12-21T23:05:47.908Z,6.70
2018-12-21T23:08:16.741Z,8.50
2018-12-21T23:10:45.098Z,7.73
2018-12-21T23:13:16.115Z,6.40
2018-12-21T23:15:48.827Z,5.50
2018-12-21T23:18:22.243Z,7.03
2018-12-21T23:20:50.779Z,7.10
2018-12-21T23:23:25.587Z,8.80
2018-12-21T23:25:57.793Z,8.97
2018-12-21T23:28:26.252Z,7.97
2018-12-21T23:30:56.713Z,6.43
2018-12-21T23:33:25.049Z,7.63
2018-12-21T23:38:33.481Z,11.30
2018-12-21T23:41:01.548Z,9.07
2018-12-21T23:43:29.830Z,8.43
2018-12-21T23:45:59.533Z,6.30
2018-12-21T23:48:27.606Z,6.23
2018-12-21T23:50:55.476Z,7.93
2018-12-21T23:53:23.754Z,9.40
2018-12-21T23:55:51.821Z,5.83
2018-12-21T23:58:19.684Z,5.53
